Time;durP1;ratioP1;P1;durP2;ratioP2;P2;SDS_P1;SDS_P2;PMS_P1;PMS_P2;Temp;Humidity;BMP_temperature;BMP_pressure;BME280_temperature;BME280_humidity;BME280_pressure;Samples;Min_cycle;Max_cycle;Signal;HPM_P1;HPM_P2
2021/08/22 00:01:46;;;;;;;;;;;;;;;17.73;100.00;98910.78;5039648;28;19931;-87
2021/08/22 00:04:13;;;;;;;;;;;;;;;17.79;100.00;98917.38;5039816;28;19924;-86
2021/08/22 00:06:41;;;;;;;;;;;;;;;17.68;100.00;98905.78;5040512;28;19990;-86
2021/08/22 00:09:08;;;;;;;;;;;;;;;17.83;100.00;98913.09;5060842;28;19925;-87
2021/08/22 00:11:35;;;;;;;;;;;;;;;17.55;100.00;98908.78;5042212;28;19983;-86
2021/08/22 00:14:02;;;;;;;;;;;;;;;17.41;100.00;98914.28;5038987;28;19924;-86
2021/08/22 00:16:30;;;;;;;;;;;;;;;17.67;100.00;98918.34;5019528;28;19929;-86
2021/08/22 00:18:59;;;;;;;;;;;;;;;17.54;100.00;98926.19;5067772;28;19936;-87
2021/08/22 00:21:27;;;;;;;;;;;;;;;17.41;100.00;98920.72;5052277;28;19960;-87
2021/08/22 00:23:54;;;;;;;;;;;;;;;17.39;100.00;98933.72;5052501;28;19956;-87
2021/08/22 00:26:21;;;;;;;;;;;;;;;17.52;100.00;98928.72;5049776;28;19936;-87
2021/08/22 00:28:49;;;;;;;;;;;;;;;17.74;100.00;98932.13;5052553;28;19967;-87
2021/08/22 00:31:19;;;;;;;;;;;;;;;17.89;100.00;98931.00;5052480;28;20023;-87
2021/08/22 00:33:46;;;;;;;;;;;;;;;17.82;100.00;98928.50;5064603;28;19932;-87
2021/08/22 00:36:13;;;;;;;;;;;;;;;17.65;100.00;98929.31;5055386;28;20023;-87
2021/08/22 00:38:41;;;;;;;;;;;;;;;17.20;100.00;98926.53;5052465;28;19925;-87
2021/08/22 00:41:08;;;;;;;;;;;;;;;17.44;100.00;98942.41;5053271;28;20020;-87
2021/08/22 00:43:35;;;;;;;;;;;;;;;17.77;100.00;98936.81;5065156;28;20419;-87
2021/08/22 00:46:03;;;;;;;;;;;;;;;17.48;100.00;98933.75;5052282;28;19925;-87
2021/08/22 00:48:30;;;;;;;;;;;;;;;17.75;100.00;98948.59;5018762;28;19931;-87
2021/08/22 00:50:58;;;;;;;;;;;;;;;17.65;100.00;98947.06;5057077;28;19947;-87
2021/08/22 00:53:25;;;;;;;;;;;;;;;17.52;100.00;98954.16;5056326;28;19931;-87
2021/08/22 00:55:57;;;;;;;;;;;;;;;17.65;100.00;98952.72;5028011;28;19932;-87
2021/08/22 00:58:25;;;;;;;;;;;;;;;17.79;100.00;98946.41;5053359;28;19925;-87
2021/08/22 01:00:53;;;;;;;;;;;;;;;17.93;100.00;98950.63;5052107;28;20326;-87
2021/08/22 01:03:40;;;;;;;;;;;;;;;17.95;100.00;98948.06;5048857;28;19929;-87
2021/08/22 01:06:14;;;;;;;;;;;;;;;17.96;100.00;98949.66;5033575;28;19925;-87
2021/08/22 01:08:47;;;;;;;;;;;;;;;17.98;100.00;98935.81;5032622;28;19932;-87
2021/08/22 01:11:16;;;;;;;;;;;;;;;17.77;100.00;98942.47;5032524;28;20296;-87
2021/08/22 01:13:47;;;;;;;;;;;;;;;17.44;100.00;98953.69;5051299;28;19925;-88
2021/08/22 01:16:16;;;;;;;;;;;;;;;17.11;100.00;98958.38;5052164;28;19964;-87
2021/08/22 01:18:45;;;;;;;;;;;;;;;17.15;100.00;98958.22;5018595;28;19932;-88
2021/08/22 01:21:15;;;;;;;;;;;;;;;17.65;100.00;98957.56;5019017;28;19932;-88
2021/08/22 01:23:53;;;;;;;;;;;;;;;17.88;100.00;98951.25;5035235;28;19928;-87
2021/08/22 01:26:25;;;;;;;;;;;;;;;18.06;100.00;98953.22;5035090;28;19925;-88
2021/08/22 01:28:53;;;;;;;;;;;;;;;18.13;100.00;98950.84;5051787;28;19931;-87
2021/08/22 01:31:35;;;;;;;;;;;;;;;18.13;100.00;98952.91;5035668;28;19928;-87
2021/08/22 01:34:02;;;;;;;;;;;;;;;18.23;100.00;98938.25;5068283;28;19932;-87
2021/08/22 01:36:33;;;;;;;;;;;;;;;18.31;100.00;98950.00;5036278;28;19929;-87
2021/08/22 01:39:00;;;;;;;;;;;;;;;18.25;100.00;98949.84;5063685;28;19975;-87
2021/08/22 01:41:28;;;;;;;;;;;;;;;18.29;100.00;98939.16;5038979;28;19925;-87
2021/08/22 01:43:56;;;;;;;;;;;;;;;18.33;100.00;98951.06;5039798;28;19924;-87
2021/08/22 01:46:33;;;;;;;;;;;;;;;18.34;100.00;98952.66;5057789;28;19975;-87
2021/08/22 01:49:06;;;;;;;;;;;;;;;18.29;100.00;98942.00;5081501;28;19925;-88
2021/08/22 01:51:33;;;;;;;;;;;;;;;18.32;100.00;98955.16;5038577;28;19929;-87
2021/08/22 01:54:04;;;;;;;;;;;;;;;18.40;100.00;98952.81;5038889;28;19960;-88
2021/08/22 01:56:31;;;;;;;;;;;;;;;18.19;100.00;98951.00;5055377;28;20296;-88
2021/08/22 01:58:58;;;;;;;;;;;;;;;18.08;100.00;98957.16;5038367;28;19964;-87
2021/08/22 02:01:26;;;;;;;;;;;;;;;17.74;100.00;98958.34;5069078;28;19970;-87
2021/08/22 02:03:59;;;;;;;;;;;;;;;17.59;100.00;98965.91;5078782;28;19925;-87
2021/08/22 02:06:47;;;;;;;;;;;;;;;18.03;100.00;98966.28;5077722;28;19947;-87
2021/08/22 02:09:22;;;;;;;;;;;;;;;18.19;100.00;98962.31;5038575;28;19932;-87
2021/08/22 02:11:53;;;;;;;;;;;;;;;18.26;100.00;98967.59;5021988;28;20379;-87
2021/08/22 02:14:22;;;;;;;;;;;;;;;18.36;100.00;98966.31;5054827;28;19929;-87
2021/08/22 02:16:51;;;;;;;;;;;;;;;18.36;100.00;98969.16;5022153;28;19925;-87
2021/08/22 02:19:20;;;;;;;;;;;;;;;18.38;100.00;98969.47;5055910;28;19970;-83
2021/08/22 02:21:47;;;;;;;;;;;;;;;18.49;100.00;98970.53;5051860;28;19925;-85
2021/08/22 02:24:15;;;;;;;;;;;;;;;18.53;100.00;98971.13;5041005;28;19952;-84
2021/08/22 02:26:43;;;;;;;;;;;;;;;18.58;100.00;98970.47;5091189;28;19924;-84
2021/08/22 02:29:10;;;;;;;;;;;;;;;18.46;100.00;98971.50;5059544;28;20027;-84
2021/08/22 02:31:37;;;;;;;;;;;;;;;18.31;100.00;98970.56;5055668;28;19956;-84
2021/08/22 02:34:05;;;;;;;;;;;;;;;18.50;100.00;98977.75;5037874;28;19924;-84
2021/08/22 02:36:32;;;;;;;;;;;;;;;18.58;100.00;98973.31;5054077;28;19925;-84
2021/08/22 02:38:59;;;;;;;;;;;;;;;18.60;100.00;98976.44;5055466;28;19931;-84
2021/08/22 02:41:26;;;;;;;;;;;;;;;18.55;100.00;98974.28;5055397;28;19995;-84
2021/08/22 02:43:54;;;;;;;;;;;;;;;18.64;100.00;98971.38;5054259;28;19928;-84
2021/08/22 02:46:21;;;;;;;;;;;;;;;18.56;100.00;98977.88;5037418;28;19933;-84
2021/08/22 02:48:48;;;;;;;;;;;;;;;18.63;100.00;98969.03;5070822;28;19932;-85
2021/08/22 02:51:15;;;;;;;;;;;;;;;18.63;100.00;98975.47;5037155;28;19943;-84
2021/08/22 02:53:42;;;;;;;;;;;;;;;18.66;100.00;98974.50;5054107;28;19925;-85
2021/08/22 02:56:09;;;;;;;;;;;;;;;18.77;100.00;98973.97;5053976;28;19932;-85
2021/08/22 02:58:37;;;;;;;;;;;;;;;18.69;100.00;98984.88;5054155;28;19925;-84
2021/08/22 03:01:04;;;;;;;;;;;;;;;18.85;100.00;98980.84;5021435;28;20269;-85
2021/08/22 03:03:32;;;;;;;;;;;;;;;18.93;100.00;98980.00;5053817;28;19924;-84
2021/08/22 03:06:02;;;;;;;;;;;;;;;19.00;100.00;98978.84;5053736;28;19925;-84
2021/08/22 03:08:29;;;;;;;;;;;;;;;18.91;100.00;98974.06;5068763;28;19970;-85
2021/08/22 03:10:57;;;;;;;;;;;;;;;19.08;100.00;98989.34;5037356;28;19932;-85
2021/08/22 03:13:24;;;;;;;;;;;;;;;19.11;100.00;98988.41;5037194;28;19924;-84
2021/08/22 03:15:51;;;;;;;;;;;;;;;19.21;100.00;98991.91;5054106;28;19932;-85
2021/08/22 03:18:18;;;;;;;;;;;;;;;19.32;100.00;98992.97;5037139;28;20372;-84
2021/08/22 03:20:46;;;;;;;;;;;;;;;19.23;100.00;98990.19;5053370;28;19940;-85
2021/08/22 03:23:13;;;;;;;;;;;;;;;19.31;100.00;98991.41;5061086;28;20425;-85
2021/08/22 03:25:41;;;;;;;;;;;;;;;19.14;100.00;98987.44;5075453;28;19929;-85
2021/08/22 03:28:08;;;;;;;;;;;;;;;19.19;100.00;98989.56;5036955;28;19971;-84
2021/08/22 03:30:38;;;;;;;;;;;;;;;19.31;100.00;98997.06;5054565;28;20287;-85
2021/08/22 03:33:05;;;;;;;;;;;;;;;19.14;100.00;98995.13;5058513;28;20402;-85
2021/08/22 03:35:33;;;;;;;;;;;;;;;19.05;100.00;98995.97;5061114;28;19932;-84
2021/08/22 03:38:00;;;;;;;;;;;;;;;19.14;100.00;99003.63;5033134;28;20023;-85
2021/08/22 03:40:27;;;;;;;;;;;;;;;19.12;100.00;98995.63;5044157;28;19924;-85
2021/08/22 03:42:54;;;;;;;;;;;;;;;18.97;100.00;99003.28;5069743;28;19968;-84
2021/08/22 03:45:22;;;;;;;;;;;;;;;19.13;100.00;98996.41;5075418;28;19928;-84
2021/08/22 03:47:50;;;;;;;;;;;;;;;19.06;100.00;99008.88;5064797;28;19963;-85
2021/08/22 03:50:17;;;;;;;;;;;;;;;19.13;100.00;99004.91;5052796;28;19933;-85
2021/08/22 03:52:47;;;;;;;;;;;;;;;19.04;100.00;99007.75;5036518;28;19925;-85
2021/08/22 03:55:15;;;;;;;;;;;;;;;19.01;100.00;99003.06;5063317;28;20010;-85
2021/08/22 03:57:42;;;;;;;;;;;;;;;19.02;100.00;99007.47;5062344;28;20085;-84
2021/08/22 04:00:10;;;;;;;;;;;;;;;18.99;100.00;99014.13;5066206;28;20423;-84
2021/08/22 04:02:38;;;;;;;;;;;;;;;18.52;100.00;99017.66;5052529;28;19992;-84
2021/08/22 04:05:23;;;;;;;;;;;;;;;18.51;100.00;99016.09;5065233;28;19937;-84
2021/08/22 04:07:53;;;;;;;;;;;;;;;18.88;100.00;99017.47;5055091;28;20295;-84
2021/08/22 04:10:21;;;;;;;;;;;;;;;18.72;100.00;99017.88;5036022;28;20331;-84
2021/08/22 04:12:56;;;;;;;;;;;;;;;18.53;100.00;99022.06;5052538;28;19933;-85
2021/08/22 04:15:23;;;;;;;;;;;;;;;18.93;100.00;99016.78;5053040;28;19925;-85
2021/08/22 04:17:52;;;;;;;;;;;;;;;19.06;100.00;99008.88;5052530;28;20024;-85
2021/08/22 04:20:20;;;;;;;;;;;;;;;18.92;100.00;99008.78;5053732;28;20576;-85
2021/08/22 04:22:47;;;;;;;;;;;;;;;18.77;100.00;99016.41;5036125;28;19925;-84
2021/08/22 04:25:15;;;;;;;;;;;;;;;18.88;100.00;99008.97;5036189;28;20027;-84
2021/08/22 04:27:43;;;;;;;;;;;;;;;18.66;100.00;99008.47;5035935;28;19948;-84
2021/08/22 04:30:11;;;;;;;;;;;;;;;18.68;100.00;99017.25;5038440;28;20277;-84
2021/08/22 04:32:38;;;;;;;;;;;;;;;18.67;100.00;99021.38;5052407;28;19925;-84
2021/08/22 04:35:07;;;;;;;;;;;;;;;18.61;100.00;99011.97;5066563;28;20380;-84
2021/08/22 04:37:35;;;;;;;;;;;;;;;18.87;100.00;99018.72;5036148;28;19948;-84
2021/08/22 04:40:03;;;;;;;;;;;;;;;18.64;100.00;99027.19;5066313;28;19936;-84
2021/08/22 04:42:31;;;;;;;;;;;;;;;18.75;100.00;99033.88;5061930;28;19924;-84
2021/08/22 04:44:59;;;;;;;;;;;;;;;18.24;100.00;99027.47;5091180;28;19947;-84
2021/08/22 04:47:28;;;;;;;;;;;;;;;18.56;100.00;99026.75;5064336;28;19925;-84
2021/08/22 04:49:55;;;;;;;;;;;;;;;18.81;100.00;99031.97;5052210;28;19968;-85
2021/08/22 04:52:22;;;;;;;;;;;;;;;18.61;100.00;99026.13;5053827;28;20415;-84
2021/08/22 04:54:50;;;;;;;;;;;;;;;18.47;100.00;99029.63;5036056;28;19964;-85
2021/08/22 04:57:17;;;;;;;;;;;;;;;18.32;100.00;99034.38;5050047;28;20368;-83
2021/08/22 04:59:45;;;;;;;;;;;;;;;18.31;100.00;99032.00;5053354;28;19971;-84
2021/08/22 05:02:13;;;;;;;;;;;;;;;18.59;100.00;99048.44;5065811;28;19933;-84
2021/08/22 05:04:40;;;;;;;;;;;;;;;18.52;100.00;99043.13;5036728;28;19932;-84
2021/08/22 05:07:08;;;;;;;;;;;;;;;18.49;100.00;99048.94;5047048;28;20399;-84
2021/08/22 05:09:36;;;;;;;;;;;;;;;18.38;100.00;99048.66;5056946;28;19948;-84
2021/08/22 05:12:03;;;;;;;;;;;;;;;18.65;100.00;99054.22;5056291;28;19968;-84
2021/08/22 05:14:31;;;;;;;;;;;;;;;18.55;100.00;99052.69;5086475;28;19924;-85
2021/08/22 05:16:58;;;;;;;;;;;;;;;18.36;100.00;99045.53;5056858;28;19947;-84
2021/08/22 05:19:25;;;;;;;;;;;;;;;18.42;100.00;99055.72;5043302;28;20382;-84
2021/08/22 05:21:52;;;;;;;;;;;;;;;18.63;100.00;99056.75;5048914;28;19929;-85
2021/08/22 05:24:20;;;;;;;;;;;;;;;18.39;100.00;99051.03;5055909;28;19924;-84
2021/08/22 05:26:47;;;;;;;;;;;;;;;18.68;100.00;99056.09;5055824;28;20372;-84
2021/08/22 05:29:15;;;;;;;;;;;;;;;18.83;100.00;99063.41;5055660;28;20018;-85
2021/08/22 05:31:42;;;;;;;;;;;;;;;18.51;100.00;99074.72;5055632;28;19929;-85
2021/08/22 05:34:09;;;;;;;;;;;;;;;18.86;100.00;99085.09;5052474;28;19925;-85
2021/08/22 05:36:37;;;;;;;;;;;;;;;19.00;100.00;99077.97;5055719;28;19925;-85
2021/08/22 05:39:05;;;;;;;;;;;;;;;19.15;100.00;99084.47;5072166;28;19924;-85
2021/08/22 05:41:32;;;;;;;;;;;;;;;19.13;100.00;99084.97;5055396;28;19925;-85
2021/08/22 05:44:02;;;;;;;;;;;;;;;18.90;100.00;99097.03;5039032;28;19925;-85
2021/08/22 05:46:29;;;;;;;;;;;;;;;19.22;100.00;99101.91;5041237;28;19933;-85
2021/08/22 05:48:56;;;;;;;;;;;;;;;19.35;100.00;99111.00;5066205;28;20015;-85
2021/08/22 05:51:28;;;;;;;;;;;;;;;19.37;100.00;99114.13;5056255;28;19972;-85
2021/08/22 05:53:56;;;;;;;;;;;;;;;19.43;100.00;99120.69;5038665;28;19924;-85
2021/08/22 05:56:24;;;;;;;;;;;;;;;19.31;100.00;99116.03;5039412;28;19925;-85
2021/08/22 05:58:52;;;;;;;;;;;;;;;19.17;100.00;99122.41;5074890;28;19924;-85
2021/08/22 06:01:22;;;;;;;;;;;;;;;18.58;100.00;99128.94;5077762;28;19966;-85
2021/08/22 06:03:49;;;;;;;;;;;;;;;18.80;100.00;99140.81;5038481;28;20027;-85
2021/08/22 06:06:19;;;;;;;;;;;;;;;19.19;100.00;99131.19;5063530;28;19933;-85
2021/08/22 06:08:46;;;;;;;;;;;;;;;19.01;100.00;99131.28;5060390;28;19929;-86
2021/08/22 06:11:13;;;;;;;;;;;;;;;19.25;100.00;99131.34;5055062;28;19973;-84
2021/08/22 06:13:40;;;;;;;;;;;;;;;19.08;100.00;99125.28;5055766;28;19931;-84
2021/08/22 06:16:07;;;;;;;;;;;;;;;19.17;100.00;99122.41;5060305;28;19924;-84
2021/08/22 06:18:35;;;;;;;;;;;;;;;19.18;100.00;99123.97;5058412;28;19932;-85
2021/08/22 06:21:02;;;;;;;;;;;;;;;19.22;100.00;99137.97;5058408;28;19925;-85
2021/08/22 06:23:39;;;;;;;;;;;;;;;19.19;100.00;99136.84;5052735;28;20398;-84
2021/08/22 06:26:07;;;;;;;;;;;;;;;19.14;100.00;99140.34;5054203;28;19928;-84
2021/08/22 06:28:34;;;;;;;;;;;;;;;18.60;100.00;99148.28;5050448;28;19936;-84
2021/08/22 06:31:02;;;;;;;;;;;;;;;18.80;100.00;99157.78;5038237;28;19974;-85
2021/08/22 06:33:30;;;;;;;;;;;;;;;18.93;100.00;99157.59;5037626;28;20011;-85
2021/08/22 06:36:03;;;;;;;;;;;;;;;18.87;100.00;99165.94;5073687;28;20000;-84
2021/08/22 06:38:30;;;;;;;;;;;;;;;18.65;100.00;99165.38;5053324;28;19929;-84
2021/08/22 06:40:57;;;;;;;;;;;;;;;18.78;100.00;99168.78;5082300;28;20015;-85
2021/08/22 06:43:24;;;;;;;;;;;;;;;19.01;100.00;99170.91;5054527;28;19928;-85
2021/08/22 06:45:51;;;;;;;;;;;;;;;18.77;100.00;99172.91;5054836;28;19947;-84
2021/08/22 06:48:19;;;;;;;;;;;;;;;19.12;100.00;99182.53;5054613;28;19971;-85
2021/08/22 06:50:48;;;;;;;;;;;;;;;19.19;100.00;99176.50;5049483;28;19996;-84
2021/08/22 06:53:30;;;;;;;;;;;;;;;19.31;100.00;99180.44;5084555;28;19956;-85
2021/08/22 06:56:01;;;;;;;;;;;;;;;19.46;100.00;99182.06;5033982;28;19932;-84
2021/08/22 06:58:31;;;;;;;;;;;;;;;19.29;100.00;99189.41;5068246;28;19925;-85
2021/08/22 07:01:01;;;;;;;;;;;;;;;19.39;100.00;99192.97;5046644;28;19932;-84
2021/08/22 07:03:28;;;;;;;;;;;;;;;19.33;100.00;99192.84;5054081;28;20007;-84
2021/08/22 07:05:55;;;;;;;;;;;;;;;19.47;100.00;99197.03;5025655;28;19932;-85
2021/08/22 07:08:23;;;;;;;;;;;;;;;19.50;100.00;99196.84;5062622;28;19924;-85
2021/08/22 07:13:11;;;;;;;;;;;;;;;19.24;100.00;99204.19;5110831;27;19990;-85
2021/08/22 07:15:38;;;;;;;;;;;;;;;19.32;100.00;99213.94;5064984;28;19924;-85
2021/08/22 07:18:06;;;;;;;;;;;;;;;19.50;100.00;99202.53;5074691;28;19931;-85
2021/08/22 07:20:34;;;;;;;;;;;;;;;19.73;100.00;99210.25;5093384;28;19928;-85
2021/08/22 07:23:01;;;;;;;;;;;;;;;19.65;100.00;99211.88;5074107;28;19973;-85
2021/08/22 07:25:28;;;;;;;;;;;;;;;19.77;100.00;99214.94;5056335;28;20360;-85
2021/08/22 07:27:59;;;;;;;;;;;;;;;19.90;100.00;99213.47;5058480;28;20383;-86
2021/08/22 07:30:26;;;;;;;;;;;;;;;19.84;100.00;99223.09;5087705;28;19931;-85
2021/08/22 07:32:54;;;;;;;;;;;;;;;19.73;100.00;99221.56;5071137;28;19924;-84
2021/08/22 07:35:22;;;;;;;;;;;;;;;19.76;100.00;99219.06;5083587;28;19974;-87
2021/08/22 07:37:49;;;;;;;;;;;;;;;20.00;100.00;99228.34;5093244;28;19970;-86
2021/08/22 07:40:17;;;;;;;;;;;;;;;20.61;100.00;99230.41;5058462;28;19931;-86
2021/08/22 07:42:44;;;;;;;;;;;;;;;21.32;100.00;99237.38;5056509;28;20383;-83
2021/08/22 07:45:12;;;;;;;;;;;;;;;21.92;100.00;99225.38;5093268;28;20018;-82
2021/08/22 07:47:39;;;;;;;;;;;;;;;21.75;100.00;99229.28;5093522;28;20021;-82
2021/08/22 07:50:06;;;;;;;;;;;;;;;21.75;100.00;99234.97;5093003;28;19924;-82
2021/08/22 07:52:33;;;;;;;;;;;;;;;21.67;100.00;99237.41;5093053;28;19934;-82
2021/08/22 07:55:00;;;;;;;;;;;;;;;21.33;100.00;99238.16;5075902;28;19928;-81
2021/08/22 07:57:27;;;;;;;;;;;;;;;21.05;100.00;99242.59;5072631;28;19924;-82
2021/08/22 07:59:54;;;;;;;;;;;;;;;20.69;100.00;99249.38;5056223;28;19931;-82
2021/08/22 08:02:21;;;;;;;;;;;;;;;20.28;100.00;99255.28;5055905;28;19924;-82
2021/08/22 08:04:51;;;;;;;;;;;;;;;20.15;100.00;99263.25;5083002;28;19923;-82
2021/08/22 08:07:18;;;;;;;;;;;;;;;20.02;100.00;99260.66;5076324;28;19931;-82
2021/08/22 08:09:46;;;;;;;;;;;;;;;20.25;100.00;99270.44;5075553;28;20016;-82
2021/08/22 08:12:15;;;;;;;;;;;;;;;20.58;100.00;99271.91;5089048;28;19978;-83
2021/08/22 08:14:42;;;;;;;;;;;;;;;20.85;100.00;99268.03;5081824;28;19923;-83
2021/08/22 08:17:10;;;;;;;;;;;;;;;21.25;100.00;99268.25;5092605;28;19924;-83
2021/08/22 08:19:38;;;;;;;;;;;;;;;22.08;100.00;99258.97;5110585;28;19924;-86
2021/08/22 08:22:07;;;;;;;;;;;;;;;22.36;100.00;99256.47;5092370;28;20382;-82
2021/08/22 08:24:34;;;;;;;;;;;;;;;21.69;100.00;99256.81;5096597;28;19928;-83
2021/08/22 08:27:01;;;;;;;;;;;;;;;21.67;100.00;99251.63;5071713;28;19924;-79
2021/08/22 08:29:28;;;;;;;;;;;;;;;21.49;100.00;99262.44;5088857;28;19924;-78
2021/08/22 08:31:55;;;;;;;;;;;;;;;20.87;100.00;99268.31;5077276;28;19925;-78
2021/08/22 08:34:23;;;;;;;;;;;;;;;20.43;100.00;99270.28;5094816;28;20011;-79
2021/08/22 08:36:50;;;;;;;;;;;;;;;20.46;100.00;99275.00;5054959;28;19931;-80
2021/08/22 08:39:17;;;;;;;;;;;;;;;20.14;100.00;99275.88;5073060;28;20372;-80
2021/08/22 08:41:46;;;;;;;;;;;;;;;19.53;100.00;99297.91;5070093;28;19924;-80
2021/08/22 08:44:13;;;;;;;;;;;;;;;19.51;100.00;99311.78;5090659;28;20046;-81
2021/08/22 08:46:43;;;;;;;;;;;;;;;19.63;100.00;99307.94;5066896;28;20317;-80
2021/08/22 08:49:28;;;;;;;;;;;;;;;19.66;100.00;99312.66;5096151;28;20379;-79
2021/08/22 08:52:14;;;;;;;;;;;;;;;19.33;100.00;99311.03;5094979;28;19928;-79
2021/08/22 08:54:42;;;;;;;;;;;;;;;19.43;100.00;99324.69;5073888;28;20256;-80
2021/08/22 08:57:09;;;;;;;;;;;;;;;19.58;100.00;99330.50;5068766;28;20307;-85
2021/08/22 08:59:37;;;;;;;;;;;;;;;19.77;100.00;99319.84;5052480;28;19985;-84
2021/08/22 09:02:04;;;;;;;;;;;;;;;19.68;100.00;99326.34;5084108;28;20023;-82
2021/08/22 09:04:51;;;;;;;;;;;;;;;19.73;100.00;99331.38;5090021;28;19930;-84
2021/08/22 09:07:46;;;;;;;;;;;;;;;19.70;100.00;99329.50;5084511;28;20470;-85
2021/08/22 09:10:31;;;;;;;;;;;;;;;19.33;100.00;99334.50;5090927;28;19924;-84
2021/08/22 09:13:17;;;;;;;;;;;;;;;19.70;100.00;99352.94;5057494;28;19931;-85
2021/08/22 09:16:03;;;;;;;;;;;;;;;19.89;100.00;99352.88;5057146;28;20383;-85
2021/08/22 09:18:50;;;;;;;;;;;;;;;19.60;100.00;99357.06;5087299;28;20348;-91
2021/08/22 09:21:33;;;;;;;;;;;;;;;19.58;100.00;99351.09;5095171;28;19973;-85
2021/08/22 09:24:18;;;;;;;;;;;;;;;19.75;100.00;99359.25;5073603;28;19940;-83
2021/08/22 09:27:13;;;;;;;;;;;;;;;19.25;100.00;99357.94;5076567;28;19924;-88
2021/08/22 09:29:59;;;;;;;;;;;;;;;19.47;100.00;99367.84;5056581;28;19931;-80
2021/08/22 09:33:02;;;;;;;;;;;;;;;19.57;100.00;99371.41;5041003;28;20382;-79
2021/08/22 09:35:48;;;;;;;;;;;;;;;19.45;100.00;99376.03;5089207;28;20018;-79
2021/08/22 09:38:33;;;;;;;;;;;;;;;19.60;100.00;99376.13;5072094;28;19935;-80
2021/08/22 09:41:01;;;;;;;;;;;;;;;19.23;100.00;99381.09;5088833;28;19928;-81
2021/08/22 09:43:46;;;;;;;;;;;;;;;19.02;100.00;99386.94;5064264;28;19931;-79
2021/08/22 09:46:32;;;;;;;;;;;;;;;19.36;100.00;99383.75;5094647;28;19924;-79
2021/08/22 09:49:11;;;;;;;;;;;;;;;19.66;100.00;99383.53;5086234;28;20011;-82
2021/08/22 09:51:44;;;;;;;;;;;;;;;20.00;100.00;99390.00;5082749;28;20034;-81
2021/08/22 09:54:14;;;;;;;;;;;;;;;20.20;100.00;99387.41;5058990;28;19971;-78
2021/08/22 09:57:00;;;;;;;;;;;;;;;20.34;100.00;99383.88;5094153;28;19924;-77
2021/08/22 09:59:36;;;;;;;;;;;;;;;20.26;100.00;99386.28;5075885;28;20363;-78
2021/08/22 10:02:16;;;;;;;;;;;;;;;20.24;100.00;99379.50;5094303;28;19931;-79
2021/08/22 10:04:43;;;;;;;;;;;;;;;20.22;100.00;99382.06;5087242;28;19924;-79
2021/08/22 10:10:27;;;;;;;;;;;;;;;20.11;100.00;99387.44;5060727;28;19923;-79
2021/08/22 10:12:54;;;;;;;;;;;;;;;20.31;100.00;99399.03;5088570;28;19970;-79
2021/08/22 10:15:22;;;;;;;;;;;;;;;20.24;100.00;99397.31;5089923;28;20291;-79
2021/08/22 10:17:49;;;;;;;;;;;;;;;20.03;100.00;99404.03;5075807;28;20002;-79
2021/08/22 10:20:17;;;;;;;;;;;;;;;20.25;100.00;99401.72;5093809;28;19931;-78
2021/08/22 10:22:44;;;;;;;;;;;;;;;20.39;100.00;99403.06;5094149;28;19924;-79
2021/08/22 10:25:16;;;;;;;;;;;;;;;20.23;100.00;99412.78;5075998;28;19928;-78
2021/08/22 10:27:45;;;;;;;;;;;;;;;19.80;100.00;99403.94;5065899;28;20251;-77
2021/08/22 10:30:23;;;;;;;;;;;;;;;19.66;100.00;99414.69;5075456;28;19928;-78
2021/08/22 10:32:56;;;;;;;;;;;;;;;19.88;100.00;99419.34;5094046;28;19963;-79
2021/08/22 10:35:27;;;;;;;;;;;;;;;19.72;100.00;99416.91;5075652;28;19972;-79
2021/08/22 10:37:54;;;;;;;;;;;;;;;20.19;100.00;99415.00;5058055;28;19994;-79
2021/08/22 10:40:30;;;;;;;;;;;;;;;20.43;100.00;99420.72;5093860;28;19924;-79
2021/08/22 10:43:00;;;;;;;;;;;;;;;20.44;100.00;99410.94;5093889;28;19988;-79
2021/08/22 10:45:39;;;;;;;;;;;;;;;20.02;100.00;99413.00;5076047;28;19954;-79
2021/08/22 10:48:21;;;;;;;;;;;;;;;20.32;100.00;99418.41;5093715;28;19931;-79
2021/08/22 10:50:58;;;;;;;;;;;;;;;20.11;100.00;99422.28;5093800;28;20409;-78
2021/08/22 10:53:29;;;;;;;;;;;;;;;19.99;100.00;99420.44;5089966;28;19928;-79
2021/08/22 10:55:57;;;;;;;;;;;;;;;20.51;100.00;99416.22;5086720;28;19924;-79
2021/08/22 10:58:42;;;;;;;;;;;;;;;20.48;100.00;99417.19;5069604;28;20476;-78
2021/08/22 11:01:16;;;;;;;;;;;;;;;20.90;100.00;99412.19;5092958;28;19928;-79
2021/08/22 11:03:59;;;;;;;;;;;;;;;21.38;100.00;99410.84;5089217;28;19924;-78
2021/08/22 11:06:26;;;;;;;;;;;;;;;21.35;100.00;99417.50;5093300;28;19934;-78
2021/08/22 11:08:54;;;;;;;;;;;;;;;21.25;100.00;99413.16;5093170;28;19924;-78
2021/08/22 11:11:21;;;;;;;;;;;;;;;21.61;100.00;99412.03;5075164;28;19928;-78
2021/08/22 11:13:55;;;;;;;;;;;;;;;21.91;100.00;99414.41;5075761;28;19925;-78
2021/08/22 11:16:37;;;;;;;;;;;;;;;22.30;100.00;99415.00;5071700;28;19924;-78
2021/08/22 11:19:05;;;;;;;;;;;;;;;22.74;100.00;99407.94;5091424;28;19924;-78
2021/08/22 11:21:33;;;;;;;;;;;;;;;23.02;100.00;99416.81;5093267;28;19947;-78
2021/08/22 11:24:01;;;;;;;;;;;;;;;22.84;100.00;99412.19;5071993;28;19928;-78
2021/08/22 11:26:28;;;;;;;;;;;;;;;22.28;100.00;99406.97;5071207;28;19924;-78
2021/08/22 11:28:56;;;;;;;;;;;;;;;22.13;100.00;99405.47;5093343;28;20386;-78
2021/08/22 11:31:26;;;;;;;;;;;;;;;21.80;100.00;99402.84;5074955;28;20015;-78
2021/08/22 11:34:10;;;;;;;;;;;;;;;22.17;100.00;99408.88;5093112;28;19928;-78
2021/08/22 11:36:37;;;;;;;;;;;;;;;22.37;100.00;99411.78;5075142;28;19924;-79
2021/08/22 11:39:12;;;;;;;;;;;;;;;22.15;100.00;99415.06;5075123;28;19931;-78
2021/08/22 11:41:42;;;;;;;;;;;;;;;22.38;100.00;99411.28;5092975;28;20343;-78
2021/08/22 11:44:09;;;;;;;;;;;;;;;22.69;100.00;99420.00;5093226;28;19924;-78
2021/08/22 11:46:37;;;;;;;;;;;;;;;23.13;100.00;99401.94;5092982;28;19924;-78
2021/08/22 11:49:04;;;;;;;;;;;;;;;22.83;100.00;99413.47;5092822;28;19924;-78
2021/08/22 11:51:31;;;;;;;;;;;;;;;22.44;100.00;99420.69;5092935;28;20019;-78
2021/08/22 11:53:59;;;;;;;;;;;;;;;22.40;100.00;99422.16;5092834;28;20351;-78
2021/08/22 11:56:26;;;;;;;;;;;;;;;22.22;100.00;99420.31;5092895;28;19992;-78
2021/08/22 11:59:01;;;;;;;;;;;;;;;22.32;100.00;99421.78;5094921;28;19930;-78
2021/08/22 12:01:28;;;;;;;;;;;;;;;22.91;100.00;99428.88;5096308;28;20378;-78
2021/08/22 12:03:57;;;;;;;;;;;;;;;22.72;100.00;99424.72;5078506;28;20039;-78
2021/08/22 12:06:26;;;;;;;;;;;;;;;22.35;100.00;99428.56;5095963;28;19928;-78
2021/08/22 12:08:53;;;;;;;;;;;;;;;22.23;100.00;99441.84;5096665;28;19931;-78
2021/08/22 12:11:23;;;;;;;;;;;;;;;22.36;100.00;99433.75;5093244;28;19924;-78
2021/08/22 12:13:51;;;;;;;;;;;;;;;22.23;100.00;99429.66;5096597;28;19947;-78
2021/08/22 12:16:24;;;;;;;;;;;;;;;22.23;100.00;99436.16;5096324;28;19924;-78
2021/08/22 12:18:52;;;;;;;;;;;;;;;22.65;100.00;99433.69;5096734;28;19924;-78
2021/08/22 12:21:21;;;;;;;;;;;;;;;23.01;100.00;99438.03;5078281;28;20263;-78
2021/08/22 12:23:50;;;;;;;;;;;;;;;22.89;100.00;99434.28;5096474;28;19924;-78
2021/08/22 12:26:31;;;;;;;;;;;;;;;22.77;100.00;99435.41;5096319;28;20565;-77
2021/08/22 12:28:59;;;;;;;;;;;;;;;22.45;100.00;99449.91;5096336;28;19928;-77
2021/08/22 12:31:31;;;;;;;;;;;;;;;22.89;100.00;99454.22;5057633;28;19932;-78
2021/08/22 12:34:00;;;;;;;;;;;;;;;23.05;100.00;99459.34;5070063;28;19935;-78
2021/08/22 12:36:38;;;;;;;;;;;;;;;22.30;100.00;99449.97;5095726;28;19928;-78
2021/08/22 12:39:07;;;;;;;;;;;;;;;22.54;100.00;99456.31;5095568;28;20489;-78
2021/08/22 12:41:37;;;;;;;;;;;;;;;22.64;100.00;99449.19;5057864;28;20011;-78
2021/08/22 12:44:06;;;;;;;;;;;;;;;22.82;100.00;99460.34;5076509;28;19925;-79
2021/08/22 12:46:34;;;;;;;;;;;;;;;23.09;100.00;99462.78;5095328;28;19924;-79
2021/08/22 12:49:02;;;;;;;;;;;;;;;23.23;100.00;99457.50;5077534;28;20379;-79
2021/08/22 12:51:29;;;;;;;;;;;;;;;22.86;100.00;99460.91;5089880;28;20007;-79
2021/08/22 12:53:57;;;;;;;;;;;;;;;22.87;100.00;99468.16;5074712;28;19958;-79
2021/08/22 12:56:25;;;;;;;;;;;;;;;23.09;100.00;99462.78;5075649;28;19931;-80